MMTOMMZH

Guest
Details From MMTO - Toluca Lic. Adolfo Lopez Mateos
To MMZH - IXTAPA ZIHUATANEJO INTL
Flight Number -
Tags generated
Created
Modified
Stats Distance 158 nm / 293 km
Max Altitude 14,100 ft / 4,298 m
Waypoints 3
Social Downloads 0
Likes 0
Share VATSIM

Download

Looking for another format? Having issues loading an existing format? Contact us
Advertisement - Login to hide

Notes

Basic altitude profile: - Ascent Rate: 300ft/min - Ascent Speed: 90kts - Cruise Altitude: 14000ft - Cruise Speed: 140kts - Descent Rate: 500ft/min - Descent Speed: 140kts Options: - Use NATs: yes - Use PACOTS: yes - Use low airways: yes - Use high airways: no

Route

MMTO NAMTA MMZH

ID Type Via Altitude Latitude Longitude Leg Dist Tot Dist Heading (true) Name
O MMTO APT - 0 ft / 0 m 19.33707˚ -99.56601˚ - 0 nm - Toluca Lic. Adolfo Lopez Mateos
NAMTA FIX - 14,100 ft / 4,298 m 18.66750˚ -100.94139˚ 87 nm 87 nm 243° / 243° -
O MMZH APT - 0 ft / 0 m 17.60157˚ -101.46053˚ 70 nm 158 nm 205° / 205° IXTAPA ZIHUATANEJO INTL

Altitude Profile

Advertisement - Login to hide

MMTO

Details ICAO MMTO (TLC)
Name Toluca Lic. Adolfo Lopez Mateos
Region Mexico
Timezone America/Mexico_City (UTC-6.0)
Stats Elevation 8,466 ft / 2,580 m (AMSL)
Location 19.337072° -99.566007°
Runways 1
Magnetic Variation 4.854° E

METAR

MMTO 120346Z 29003KT 6SM SKC 05/M06 A3043 RMK AC METAR MMVR 120344Z 29003KT 7SM SCT030 19/14 A3027 RMK 8/500 HZY ISOL CU

Decode

TAF

TAF MMTO 112307Z 1200/1306 00000KT P6SM SCT200 TX20/1221Z TN01/1213Z FM121800 06010KT P6SMSCT200 BECMG 1302/1303 03005KT

Decode

Departure Runways

ID Width Length Bearing (true) Bearing (mag) Surface Threshold Offset Overrun Length
15 148 ft / 45 m 13,825 ft / 4,214 m 156.90° 152.05° Asphalt 0 ft / 0 m 194 ft / 59 m
33 148 ft / 45 m 13,825 ft / 4,214 m 336.91° 332.06° Asphalt 545 ft / 166 m 194 ft / 59 m

MMZH

Details ICAO MMZH (ZIH)
Name IXTAPA ZIHUATANEJO INTL
Region Mexico
Timezone America/Mexico_City (UTC-6.0)
Stats Elevation 26 ft / 8 m (AMSL)
Location 17.601568° -101.460535°
Runways 1
Magnetic Variation 5.614° E

METAR

Not found

TAF

Not found

Destination Runways

ID Width Length Bearing (true) Bearing (mag) Surface Threshold Offset Overrun Length
08 197 ft / 60 m 8,207 ft / 2,502 m 91.58° 85.97° Asphalt 0 ft / 0 m 197 ft / 60 m
26 197 ft / 60 m 8,207 ft / 2,502 m 271.58° 265.97° Asphalt 0 ft / 0 m 197 ft / 60 m

Popular Alternatives